sensor_id;sensor_type;location;lat;lon;timestamp;pressure;altitude;pressure_sealevel;temperature;humidity
63343;BME280;49465;57.664;39.686;2023-01-31T00:01:49;98187.25;;;2.11;61.36
63343;BME280;49465;57.664;39.686;2023-01-31T00:04:15;98181.19;;;1.97;61.37
63343;BME280;49465;57.664;39.686;2023-01-31T00:06:47;98183.94;;;2.09;61.13
63343;BME280;49465;57.664;39.686;2023-01-31T00:09:18;98180.53;;;2.08;61.58
63343;BME280;49465;57.664;39.686;2023-01-31T00:11:48;98183.19;;;2.07;61.73
63343;BME280;49465;57.664;39.686;2023-01-31T00:14:19;98185.06;;;2.05;61.40
63343;BME280;49465;57.664;39.686;2023-01-31T00:16:48;98185.44;;;1.98;61.46
63343;BME280;49465;57.664;39.686;2023-01-31T00:19:23;98187.44;;;2.08;61.27
63343;BME280;49465;57.664;39.686;2023-01-31T00:21:56;98189.81;;;2.11;61.13
63343;BME280;49465;57.664;39.686;2023-01-31T00:24:31;98196.81;;;2.23;61.14
63343;BME280;49465;57.664;39.686;2023-01-31T00:27:11;98198.13;;;2.16;61.00
63343;BME280;49465;57.664;39.686;2023-01-31T00:29:38;98184.09;;;2.06;61.50
63343;BME280;49465;57.664;39.686;2023-01-31T00:32:28;98195.63;;;2.14;61.40
63343;BME280;49465;57.664;39.686;2023-01-31T00:34:59;98206.06;;;2.13;61.46
63343;BME280;49465;57.664;39.686;2023-01-31T00:37:31;98199.25;;;2.12;61.09
63343;BME280;49465;57.664;39.686;2023-01-31T00:40:09;98207.38;;;2.33;60.80
63343;BME280;49465;57.664;39.686;2023-01-31T00:42:38;98194.28;;;2.09;61.09
63343;BME280;49465;57.664;39.686;2023-01-31T00:45:18;98203.75;;;2.23;60.98
63343;BME280;49465;57.664;39.686;2023-01-31T00:47:50;98205.97;;;2.14;60.93
63343;BME280;49465;57.664;39.686;2023-01-31T00:50:25;98195.09;;;2.09;60.98
63343;BME280;49465;57.664;39.686;2023-01-31T00:52:57;98208.34;;;2.17;60.88
63343;BME280;49465;57.664;39.686;2023-01-31T00:55:33;98198.38;;;2.26;60.70
63343;BME280;49465;57.664;39.686;2023-01-31T00:57:59;98191.03;;;2.05;60.96
63343;BME280;49465;57.664;39.686;2023-01-31T01:00:31;98195.19;;;2.08;60.67
63343;BME280;49465;57.664;39.686;2023-01-31T01:02:57;98196.84;;;2.09;60.84
63343;BME280;49465;57.664;39.686;2023-01-31T01:05:27;98196.66;;;2.12;60.88
63343;BME280;49465;57.664;39.686;2023-01-31T01:07:56;98204.44;;;2.12;61.00
63343;BME280;49465;57.664;39.686;2023-01-31T01:10:33;98209.94;;;2.20;61.16
63343;BME280;49465;57.664;39.686;2023-01-31T01:13:07;98203.81;;;2.21;60.57
63343;BME280;49465;57.664;39.686;2023-01-31T01:15:37;98204.56;;;2.23;60.64
63343;BME280;49465;57.664;39.686;2023-01-31T01:18:12;98207.00;;;2.12;60.32
63343;BME280;49465;57.664;39.686;2023-01-31T01:20:44;98203.50;;;2.13;60.84
63343;BME280;49465;57.664;39.686;2023-01-31T01:23:16;98194.91;;;2.12;60.82
63343;BME280;49465;57.664;39.686;2023-01-31T01:25:49;98185.00;;;2.19;60.68
63343;BME280;49465;57.664;39.686;2023-01-31T01:28:21;98189.28;;;2.06;60.46
63343;BME280;49465;57.664;39.686;2023-01-31T01:30:51;98181.81;;;2.01;60.84
63343;BME280;49465;57.664;39.686;2023-01-31T01:33:25;98185.09;;;2.17;60.85
63343;BME280;49465;57.664;39.686;2023-01-31T01:36:01;98184.97;;;2.33;60.80
63343;BME280;49465;57.664;39.686;2023-01-31T01:38:34;98183.63;;;2.13;60.77
63343;BME280;49465;57.664;39.686;2023-01-31T01:41:04;98183.59;;;2.01;60.63
63343;BME280;49465;57.664;39.686;2023-01-31T01:43:53;98194.50;;;2.46;60.15
63343;BME280;49465;57.664;39.686;2023-01-31T01:48:58;98185.47;;;2.11;60.30
63343;BME280;49465;57.664;39.686;2023-01-31T01:51:32;98198.22;;;2.14;60.67
63343;BME280;49465;57.664;39.686;2023-01-31T01:54:11;98194.84;;;2.27;60.36
63343;BME280;49465;57.664;39.686;2023-01-31T01:56:43;98195.34;;;2.19;60.27
63343;BME280;49465;57.664;39.686;2023-01-31T01:59:23;98196.72;;;2.25;60.36
63343;BME280;49465;57.664;39.686;2023-01-31T02:01:56;98194.44;;;2.20;60.38
63343;BME280;49465;57.664;39.686;2023-01-31T02:04:33;98199.78;;;2.17;60.76
63343;BME280;49465;57.664;39.686;2023-01-31T02:07:06;98192.81;;;2.05;60.60
63343;BME280;49465;57.664;39.686;2023-01-31T02:09:51;98190.47;;;2.14;60.93
63343;BME280;49465;57.664;39.686;2023-01-31T02:12:22;98185.06;;;2.05;60.28
63343;BME280;49465;57.664;39.686;2023-01-31T02:14:51;98185.97;;;2.04;60.30
63343;BME280;49465;57.664;39.686;2023-01-31T02:17:21;98191.88;;;2.06;60.30
63343;BME280;49465;57.664;39.686;2023-01-31T02:33:21;98196.19;;;2.20;60.34
63343;BME280;49465;57.664;39.686;2023-01-31T02:48:07;98191.38;;;2.41;59.80
63343;BME280;49465;57.664;39.686;2023-01-31T02:51:17;98196.31;;;2.58;60.18
63343;BME280;49465;57.664;39.686;2023-01-31T02:53:54;98198.78;;;2.20;60.14
63343;BME280;49465;57.664;39.686;2023-01-31T02:56:28;98207.53;;;2.84;58.66
63343;BME280;49465;57.664;39.686;2023-01-31T03:01:54;98209.34;;;2.29;60.19
63343;BME280;49465;57.664;39.686;2023-01-31T03:04:21;98207.59;;;2.03;60.21
63343;BME280;49465;57.664;39.686;2023-01-31T03:07:12;98215.59;;;2.40;60.13
63343;BME280;49465;57.664;39.686;2023-01-31T03:12:58;98209.50;;;2.41;59.62
63343;BME280;49465;57.664;39.686;2023-01-31T03:15:45;98220.53;;;2.30;60.50
63343;BME280;49465;57.664;39.686;2023-01-31T03:19:04;98211.69;;;2.47;59.65
63343;BME280;49465;57.664;39.686;2023-01-31T03:21:48;98217.06;;;2.84;58.09
63343;BME280;49465;57.664;39.686;2023-01-31T03:24:21;98220.06;;;2.23;59.71
63343;BME280;49465;57.664;39.686;2023-01-31T03:26:57;98218.59;;;2.19;60.02
63343;BME280;49465;57.664;39.686;2023-01-31T03:29:30;98214.13;;;2.08;60.57
63343;BME280;49465;57.664;39.686;2023-01-31T03:32:18;98220.81;;;2.25;60.20
63343;BME280;49465;57.664;39.686;2023-01-31T03:34:51;98228.22;;;2.17;60.47
63343;BME280;49465;57.664;39.686;2023-01-31T03:37:33;98217.09;;;2.02;60.29
63343;BME280;49465;57.664;39.686;2023-01-31T03:45:22;98230.63;;;2.20;59.65
63343;BME280;49465;57.664;39.686;2023-01-31T03:47:53;98227.69;;;2.12;59.85
63343;BME280;49465;57.664;39.686;2023-01-31T03:50:35;98227.09;;;2.21;59.98
63343;BME280;49465;57.664;39.686;2023-01-31T03:53:14;98228.63;;;2.38;59.98
63343;BME280;49465;57.664;39.686;2023-01-31T03:55:43;98239.88;;;2.10;60.10
63343;BME280;49465;57.664;39.686;2023-01-31T03:58:19;98232.41;;;2.05;60.33
63343;BME280;49465;57.664;39.686;2023-01-31T04:00:49;98241.25;;;2.15;60.21
63343;BME280;49465;57.664;39.686;2023-01-31T04:03:30;98243.25;;;2.25;60.58
63343;BME280;49465;57.664;39.686;2023-01-31T04:06:07;98250.34;;;2.35;59.87
63343;BME280;49465;57.664;39.686;2023-01-31T04:08:37;98244.13;;;2.11;59.72
63343;BME280;49465;57.664;39.686;2023-01-31T04:11:10;98247.13;;;2.17;60.20
63343;BME280;49465;57.664;39.686;2023-01-31T04:13:42;98251.84;;;2.25;60.27
63343;BME280;49465;57.664;39.686;2023-01-31T04:16:13;98248.66;;;2.07;59.83
63343;BME280;49465;57.664;39.686;2023-01-31T04:18:46;98256.28;;;2.23;59.89
63343;BME280;49465;57.664;39.686;2023-01-31T04:21:24;98259.41;;;2.28;60.17
63343;BME280;49465;57.664;39.686;2023-01-31T04:23:53;98270.88;;;2.24;60.03
63343;BME280;49465;57.664;39.686;2023-01-31T04:26:20;98269.97;;;2.11;59.91
63343;BME280;49465;57.664;39.686;2023-01-31T04:28:55;98277.56;;;2.14;59.89
63343;BME280;49465;57.664;39.686;2023-01-31T04:31:33;98282.13;;;2.23;59.94
63343;BME280;49465;57.664;39.686;2023-01-31T04:34:05;98282.59;;;2.15;59.64
63343;BME280;49465;57.664;39.686;2023-01-31T04:36:38;98284.00;;;2.21;59.89
63343;BME280;49465;57.664;39.686;2023-01-31T04:39:09;98282.88;;;2.25;60.17
63343;BME280;49465;57.664;39.686;2023-01-31T04:41:47;98290.53;;;2.41;60.09
63343;BME280;49465;57.664;39.686;2023-01-31T04:44:17;98287.69;;;2.17;60.34
63343;BME280;49465;57.664;39.686;2023-01-31T04:46:43;98289.94;;;2.09;60.15
63343;BME280;49465;57.664;39.686;2023-01-31T04:49:14;98293.59;;;2.19;60.49
63343;BME280;49465;57.664;39.686;2023-01-31T04:51:43;98295.38;;;2.04;60.31
63343;BME280;49465;57.664;39.686;2023-01-31T04:54:17;98290.28;;;2.17;60.23
63343;BME280;49465;57.664;39.686;2023-01-31T04:56:44;98289.84;;;2.10;60.01
63343;BME280;49465;57.664;39.686;2023-01-31T04:59:15;98300.34;;;2.22;60.36
63343;BME280;49465;57.664;39.686;2023-01-31T05:01:41;98294.91;;;2.12;59.99
63343;BME280;49465;57.664;39.686;2023-01-31T05:04:11;98309.66;;;2.24;60.33
63343;BME280;49465;57.664;39.686;2023-01-31T05:06:43;98303.84;;;2.21;60.63
63343;BME280;49465;57.664;39.686;2023-01-31T05:09:17;98299.50;;;2.21;60.50
63343;BME280;49465;57.664;39.686;2023-01-31T05:11:50;98313.38;;;2.20;60.69
63343;BME280;49465;57.664;39.686;2023-01-31T05:14:18;98322.59;;;2.24;61.03
63343;BME280;49465;57.664;39.686;2023-01-31T05:16:51;98319.19;;;2.24;60.66
63343;BME280;49465;57.664;39.686;2023-01-31T05:19:20;98321.66;;;2.25;60.84
63343;BME280;49465;57.664;39.686;2023-01-31T05:21:58;98312.44;;;2.21;61.87
63343;BME280;49465;57.664;39.686;2023-01-31T05:24:26;98324.34;;;2.09;61.86
63343;BME280;49465;57.664;39.686;2023-01-31T05:26:57;98327.03;;;2.22;61.50
63343;BME280;49465;57.664;39.686;2023-01-31T05:29:34;98330.66;;;2.20;62.22
63343;BME280;49465;57.664;39.686;2023-01-31T05:32:06;98328.06;;;2.20;61.58
63343;BME280;49465;57.664;39.686;2023-01-31T05:34:36;98340.69;;;2.24;61.38
63343;BME280;49465;57.664;39.686;2023-01-31T05:37:05;98327.97;;;2.07;61.29
63343;BME280;49465;57.664;39.686;2023-01-31T05:39:40;98339.41;;;2.17;62.16
63343;BME280;49465;57.664;39.686;2023-01-31T05:42:09;98331.19;;;2.25;61.72
63343;BME280;49465;57.664;39.686;2023-01-31T05:44:38;98341.72;;;2.22;62.01
63343;BME280;49465;57.664;39.686;2023-01-31T05:47:12;98342.50;;;2.92;59.29
63343;BME280;49465;57.664;39.686;2023-01-31T05:49:44;98351.09;;;2.37;60.70
63343;BME280;49465;57.664;39.686;2023-01-31T05:52:10;98338.97;;;2.10;61.34
63343;BME280;49465;57.664;39.686;2023-01-31T05:54:47;98340.88;;;2.21;62.04
63343;BME280;49465;57.664;39.686;2023-01-31T05:57:17;98350.13;;;2.11;61.45
63343;BME280;49465;57.664;39.686;2023-01-31T05:59:49;98348.09;;;2.16;61.98
63343;BME280;49465;57.664;39.686;2023-01-31T06:02:24;98351.97;;;2.37;61.60
63343;BME280;49465;57.664;39.686;2023-01-31T06:05:02;98356.19;;;2.38;61.82
63343;BME280;49465;57.664;39.686;2023-01-31T06:07:37;98357.69;;;2.28;62.03
63343;BME280;49465;57.664;39.686;2023-01-31T06:10:08;98348.19;;;2.14;61.97
63343;BME280;49465;57.664;39.686;2023-01-31T06:12:43;98344.47;;;2.33;62.23
63343;BME280;49465;57.664;39.686;2023-01-31T06:15:19;98350.47;;;2.19;62.53
63343;BME280;49465;57.664;39.686;2023-01-31T06:17:53;98353.53;;;2.26;62.15
63343;BME280;49465;57.664;39.686;2023-01-31T06:20:20;98350.94;;;2.11;62.33
63343;BME280;49465;57.664;39.686;2023-01-31T06:22:49;98349.09;;;2.13;62.23
63343;BME280;49465;57.664;39.686;2023-01-31T06:25:31;98345.50;;;2.30;61.95
63343;BME280;49465;57.664;39.686;2023-01-31T06:28:01;98345.78;;;2.11;62.22
63343;BME280;49465;57.664;39.686;2023-01-31T06:30:42;98345.75;;;2.40;62.14
63343;BME280;49465;57.664;39.686;2023-01-31T06:33:11;98355.94;;;2.29;61.92
63343;BME280;49465;57.664;39.686;2023-01-31T06:35:41;98355.94;;;2.14;62.07
63343;BME280;49465;57.664;39.686;2023-01-31T06:38:10;98358.72;;;2.26;61.53
63343;BME280;49465;57.664;39.686;2023-01-31T06:40:43;98365.53;;;2.27;61.81
63343;BME280;49465;57.664;39.686;2023-01-31T06:43:09;98363.69;;;2.14;62.05
63343;BME280;49465;57.664;39.686;2023-01-31T06:45:42;98374.22;;;2.40;62.15
63343;BME280;49465;57.664;39.686;2023-01-31T06:48:21;98363.56;;;2.45;61.78
63343;BME280;49465;57.664;39.686;2023-01-31T06:50:56;98373.97;;;2.16;61.40
63343;BME280;49465;57.664;39.686;2023-01-31T06:53:26;98373.97;;;2.16;61.71
63343;BME280;49465;57.664;39.686;2023-01-31T06:55:54;98385.31;;;2.28;62.16
63343;BME280;49465;57.664;39.686;2023-01-31T06:58:21;98381.50;;;2.19;61.81
63343;BME280;49465;57.664;39.686;2023-01-31T07:00:53;98382.91;;;2.25;61.56
63343;BME280;49465;57.664;39.686;2023-01-31T07:03:28;98391.31;;;2.28;61.90
63343;BME280;49465;57.664;39.686;2023-01-31T07:05:55;98389.28;;;2.19;61.75
63343;BME280;49465;57.664;39.686;2023-01-31T07:08:21;98383.84;;;2.24;61.59
63343;BME280;49465;57.664;39.686;2023-01-31T07:10:48;98390.75;;;2.23;61.89
63343;BME280;49465;57.664;39.686;2023-01-31T07:13:17;98397.88;;;2.34;61.92
63343;BME280;49465;57.664;39.686;2023-01-31T07:15:49;98395.09;;;2.37;61.63
63343;BME280;49465;57.664;39.686;2023-01-31T07:18:19;98394.81;;;2.42;61.51
63343;BME280;49465;57.664;39.686;2023-01-31T07:20:52;98397.75;;;2.50;61.17
63343;BME280;49465;57.664;39.686;2023-01-31T07:23:21;98403.69;;;2.23;61.41
63343;BME280;49465;57.664;39.686;2023-01-31T07:25:49;98404.25;;;2.28;61.70
63343;BME280;49465;57.664;39.686;2023-01-31T07:28:29;98410.66;;;2.64;61.18
63343;BME280;49465;57.664;39.686;2023-01-31T07:31:05;98412.34;;;2.65;60.65
63343;BME280;49465;57.664;39.686;2023-01-31T07:33:48;98406.00;;;2.28;61.95
63343;BME280;49465;57.664;39.686;2023-01-31T07:36:19;98410.88;;;2.47;61.37
63343;BME280;49465;57.664;39.686;2023-01-31T07:38:57;98409.41;;;2.43;61.53
63343;BME280;49465;57.664;39.686;2023-01-31T07:41:25;98405.88;;;2.29;61.82
63343;BME280;49465;57.664;39.686;2023-01-31T07:43:58;98401.56;;;2.30;61.54
63343;BME280;49465;57.664;39.686;2023-01-31T07:46:35;98409.03;;;2.34;61.04
63343;BME280;49465;57.664;39.686;2023-01-31T07:49:04;98413.91;;;2.39;61.03
63343;BME280;49465;57.664;39.686;2023-01-31T07:51:34;98417.00;;;2.31;61.73
63343;BME280;49465;57.664;39.686;2023-01-31T07:54:01;98424.56;;;2.34;61.63
63343;BME280;49465;57.664;39.686;2023-01-31T07:56:33;98424.28;;;2.53;61.38
63343;BME280;49465;57.664;39.686;2023-01-31T07:58:59;98419.22;;;2.37;61.32
63343;BME280;49465;57.664;39.686;2023-01-31T08:01:34;98427.41;;;2.58;60.83
63343;BME280;49465;57.664;39.686;2023-01-31T08:04:25;98437.75;;;2.58;61.37
63343;BME280;49465;57.664;39.686;2023-01-31T08:06:59;98429.91;;;2.60;60.80
63343;BME280;49465;57.664;39.686;2023-01-31T08:09:42;98432.50;;;2.60;60.93
63343;BME280;49465;57.664;39.686;2023-01-31T08:12:17;98437.50;;;2.63;61.44
63343;BME280;49465;57.664;39.686;2023-01-31T08:14:55;98436.00;;;2.73;60.97
63343;BME280;49465;57.664;39.686;2023-01-31T08:17:30;98434.53;;;2.55;61.05
63343;BME280;49465;57.664;39.686;2023-01-31T08:20:03;98438.75;;;2.70;60.67
63343;BME280;49465;57.664;39.686;2023-01-31T08:22:32;98433.69;;;2.54;61.30
63343;BME280;49465;57.664;39.686;2023-01-31T08:25:01;98436.00;;;2.59;61.00
63343;BME280;49465;57.664;39.686;2023-01-31T08:27:30;98436.19;;;2.56;61.15
63343;BME280;49465;57.664;39.686;2023-01-31T08:30:02;98435.81;;;2.76;60.96
63343;BME280;49465;57.664;39.686;2023-01-31T08:32:32;98436.56;;;2.64;61.39
63343;BME280;49465;57.664;39.686;2023-01-31T08:35:07;98447.28;;;2.58;61.18
63343;BME280;49465;57.664;39.686;2023-01-31T08:37:34;98443.41;;;2.65;61.39
63343;BME280;49465;57.664;39.686;2023-01-31T08:40:07;98451.69;;;2.70;61.09
63343;BME280;49465;57.664;39.686;2023-01-31T08:42:36;98448.47;;;2.81;60.71
63343;BME280;49465;57.664;39.686;2023-01-31T08:45:03;98449.84;;;2.72;61.09
63343;BME280;49465;57.664;39.686;2023-01-31T08:47:29;98446.16;;;2.62;61.01
63343;BME280;49465;57.664;39.686;2023-01-31T08:49:58;98449.41;;;2.66;60.74
63343;BME280;49465;57.664;39.686;2023-01-31T08:52:25;98450.97;;;2.68;60.90
63343;BME280;49465;57.664;39.686;2023-01-31T08:54:55;98455.84;;;2.87;61.16
63343;BME280;49465;57.664;39.686;2023-01-31T08:57:21;98456.69;;;2.73;60.71
63343;BME280;49465;57.664;39.686;2023-01-31T08:59:47;98458.72;;;2.68;61.15
63343;BME280;49465;57.664;39.686;2023-01-31T09:02:16;98453.38;;;2.71;60.74
63343;BME280;49465;57.664;39.686;2023-01-31T09:04:42;98457.16;;;2.66;61.04
63343;BME280;49465;57.664;39.686;2023-01-31T09:07:09;98462.03;;;2.70;60.69
63343;BME280;49465;57.664;39.686;2023-01-31T09:09:44;98458.56;;;2.71;60.89
63343;BME280;49465;57.664;39.686;2023-01-31T09:12:10;98472.13;;;2.75;60.77
63343;BME280;49465;57.664;39.686;2023-01-31T09:14:37;98464.09;;;2.80;60.95
63343;BME280;49465;57.664;39.686;2023-01-31T09:17:03;98458.09;;;2.79;60.86
63343;BME280;49465;57.664;39.686;2023-01-31T09:19:29;98467.78;;;2.75;61.03
63343;BME280;49465;57.664;39.686;2023-01-31T09:21:58;98464.09;;;2.80;61.10
63343;BME280;49465;57.664;39.686;2023-01-31T09:24:31;98471.09;;;2.92;60.79
63343;BME280;49465;57.664;39.686;2023-01-31T09:26:59;98465.34;;;3.01;60.40
63343;BME280;49465;57.664;39.686;2023-01-31T09:29:25;98469.22;;;2.94;60.32
63343;BME280;49465;57.664;39.686;2023-01-31T09:32:02;98462.09;;;2.97;60.28
63343;BME280;49465;57.664;39.686;2023-01-31T09:34:28;98455.03;;;2.87;60.35
63343;BME280;49465;57.664;39.686;2023-01-31T09:36:54;98460.84;;;2.90;60.38
63343;BME280;49465;57.664;39.686;2023-01-31T09:39:23;98461.84;;;2.88;60.24
63343;BME280;49465;57.664;39.686;2023-01-31T09:42:00;98460.06;;;3.03;60.54
63343;BME280;49465;57.664;39.686;2023-01-31T09:44:32;98464.69;;;2.97;60.43
63343;BME280;49465;57.664;39.686;2023-01-31T09:47:17;98460.41;;;3.11;60.04
63343;BME280;49465;57.664;39.686;2023-01-31T09:49:51;98455.88;;;3.14;59.99
63343;BME280;49465;57.664;39.686;2023-01-31T09:52:22;98468.22;;;2.96;60.39
63343;BME280;49465;57.664;39.686;2023-01-31T09:54:51;98470.09;;;2.94;60.44
63343;BME280;49465;57.664;39.686;2023-01-31T09:57:27;98468.66;;;3.17;60.35
63343;BME280;49465;57.664;39.686;2023-01-31T10:00:45;98469.75;;;3.41;59.74
63343;BME280;49465;57.664;39.686;2023-01-31T10:05:56;98472.97;;;3.31;59.92
63343;BME280;49465;57.664;39.686;2023-01-31T10:09:09;98477.78;;;3.50;59.30
63343;BME280;49465;57.664;39.686;2023-01-31T10:12:55;98477.41;;;3.29;59.75
63343;BME280;49465;57.664;39.686;2023-01-31T10:15:04;98476.53;;;3.43;59.70
63343;BME280;49465;57.664;39.686;2023-01-31T10:17:42;98482.84;;;3.25;60.28
63343;BME280;49465;57.664;39.686;2023-01-31T10:23:22;98470.97;;;3.35;59.72
63343;BME280;49465;57.664;39.686;2023-01-31T10:25:47;98469.97;;;3.10;59.80
63343;BME280;49465;57.664;39.686;2023-01-31T10:31:28;98479.88;;;3.58;59.32
63343;BME280;49465;57.664;39.686;2023-01-31T10:36:37;98479.84;;;3.45;58.89
63343;BME280;49465;57.664;39.686;2023-01-31T10:39:29;98488.88;;;3.52;59.56
63343;BME280;49465;57.664;39.686;2023-01-31T10:42:36;98484.16;;;3.59;59.43
63343;BME280;49465;57.664;39.686;2023-01-31T10:45:14;98475.50;;;3.46;59.95
63343;BME280;49465;57.664;39.686;2023-01-31T10:47:52;98479.84;;;3.45;59.32
63343;BME280;49465;57.664;39.686;2023-01-31T10:50:46;98480.59;;;3.47;60.02
63343;BME280;49465;57.664;39.686;2023-01-31T10:56:04;98484.38;;;3.42;59.49
63343;BME280;49465;57.664;39.686;2023-01-31T10:58:33;98484.88;;;4.14;57.95
63343;BME280;49465;57.664;39.686;2023-01-31T11:01:00;98480.75;;;3.44;59.21
63343;BME280;49465;57.664;39.686;2023-01-31T11:03:30;98481.72;;;3.29;59.39
63343;BME280;49465;57.664;39.686;2023-01-31T11:05:57;98476.56;;;3.29;59.64
63343;BME280;49465;57.664;39.686;2023-01-31T11:08:44;98486.94;;;3.56;59.98
63343;BME280;49465;57.664;39.686;2023-01-31T11:11:19;98485.94;;;3.44;59.38
63343;BME280;49465;57.664;39.686;2023-01-31T11:14:01;98483.03;;;3.36;59.50
63343;BME280;49465;57.664;39.686;2023-01-31T11:16:30;98488.03;;;3.25;60.02
63343;BME280;49465;57.664;39.686;2023-01-31T11:19:12;98479.53;;;3.50;58.87
63343;BME280;49465;57.664;39.686;2023-01-31T11:21:41;98475.56;;;3.31;59.08
63343;BME280;49465;57.664;39.686;2023-01-31T11:24:29;98478.75;;;3.62;59.00
63343;BME280;49465;57.664;39.686;2023-01-31T11:29:39;98468.44;;;3.48;59.27
63343;BME280;49465;57.664;39.686;2023-01-31T11:32:28;98465.94;;;3.46;58.54
63343;BME280;49465;57.664;39.686;2023-01-31T11:34:57;98455.91;;;3.27;59.27
63343;BME280;49465;57.664;39.686;2023-01-31T11:37:23;98460.28;;;3.27;59.71
63343;BME280;49465;57.664;39.686;2023-01-31T11:39:58;98460.34;;;3.40;59.07
63343;BME280;49465;57.664;39.686;2023-01-31T11:42:26;98466.91;;;3.31;58.75
63343;BME280;49465;57.664;39.686;2023-01-31T11:45:00;98467.81;;;3.44;58.82
63343;BME280;49465;57.664;39.686;2023-01-31T11:47:46;98470.06;;;3.63;58.00
63343;BME280;49465;57.664;39.686;2023-01-31T11:50:26;98484.72;;;3.50;59.23
63343;BME280;49465;57.664;39.686;2023-01-31T11:53:13;98485.78;;;3.33;59.24
63343;BME280;49465;57.664;39.686;2023-01-31T11:55:48;98493.66;;;3.59;58.50
63343;BME280;49465;57.664;39.686;2023-01-31T12:03:20;98479.13;;;3.43;59.00
63343;BME280;49465;57.664;39.686;2023-01-31T12:05:57;98475.91;;;3.52;58.60
63343;BME280;49465;57.664;39.686;2023-01-31T12:08:39;98476.47;;;3.58;57.86
63343;BME280;49465;57.664;39.686;2023-01-31T12:13:48;98481.31;;;3.49;58.92
63343;BME280;49465;57.664;39.686;2023-01-31T12:16:25;98478.63;;;3.51;58.29
63343;BME280;49465;57.664;39.686;2023-01-31T12:41:35;98496.13;;;3.74;58.11
63343;BME280;49465;57.664;39.686;2023-01-31T12:49:54;98494.44;;;3.46;57.74
63343;BME280;49465;57.664;39.686;2023-01-31T12:58:40;98512.03;;;3.95;57.00
63343;BME280;49465;57.664;39.686;2023-01-31T13:01:38;98512.44;;;3.89;56.54
63343;BME280;49465;57.664;39.686;2023-01-31T13:05:32;98514.84;;;3.92;57.28
63343;BME280;49465;57.664;39.686;2023-01-31T13:07:50;98518.84;;;3.56;58.02
63343;BME280;49465;57.664;39.686;2023-01-31T13:10:38;98519.31;;;3.63;58.26
63343;BME280;49465;57.664;39.686;2023-01-31T13:13:33;98521.53;;;3.82;57.68
63343;BME280;49465;57.664;39.686;2023-01-31T13:16:25;98533.06;;;3.91;57.42
63343;BME280;49465;57.664;39.686;2023-01-31T13:18:59;98532.91;;;3.67;57.47
63343;BME280;49465;57.664;39.686;2023-01-31T13:21:35;98534.38;;;3.84;57.61
63343;BME280;49465;57.664;39.686;2023-01-31T13:24:36;98542.53;;;4.05;57.17
63343;BME280;49465;57.664;39.686;2023-01-31T13:27:29;98548.88;;;4.01;57.89
63343;BME280;49465;57.664;39.686;2023-01-31T13:30:03;98554.00;;;3.88;57.81
63343;BME280;49465;57.664;39.686;2023-01-31T13:32:48;98557.44;;;3.88;57.69
63343;BME280;49465;57.664;39.686;2023-01-31T13:35:33;98561.50;;;3.92;58.15
63343;BME280;49465;57.664;39.686;2023-01-31T13:38:05;98552.78;;;3.66;58.20
63343;BME280;49465;57.664;39.686;2023-01-31T13:40:43;98555.59;;;3.63;58.10
63343;BME280;49465;57.664;39.686;2023-01-31T13:43:18;98559.34;;;3.72;57.68
63343;BME280;49465;57.664;39.686;2023-01-31T13:45:57;98566.78;;;3.64;57.56
63343;BME280;49465;57.664;39.686;2023-01-31T13:48:46;98564.78;;;3.82;57.01
63343;BME280;49465;57.664;39.686;2023-01-31T13:51:28;98577.66;;;3.83;57.52
63343;BME280;49465;57.664;39.686;2023-01-31T13:54:38;98580.00;;;4.01;57.22
63343;BME280;49465;57.664;39.686;2023-01-31T13:57:06;98581.78;;;3.59;58.05
63343;BME280;49465;57.664;39.686;2023-01-31T13:59:52;98589.22;;;3.78;57.26
63343;BME280;49465;57.664;39.686;2023-01-31T14:02:23;98586.69;;;3.63;57.49
63343;BME280;49465;57.664;39.686;2023-01-31T14:05:48;98590.44;;;3.86;57.94
63343;BME280;49465;57.664;39.686;2023-01-31T14:16:43;98589.94;;;3.67;57.65
63343;BME280;49465;57.664;39.686;2023-01-31T14:22:03;98598.19;;;3.59;57.82
63343;BME280;49465;57.664;39.686;2023-01-31T14:27:22;98604.50;;;3.55;58.10
63343;BME280;49465;57.664;39.686;2023-01-31T14:32:33;98600.03;;;3.43;58.56
63343;BME280;49465;57.664;39.686;2023-01-31T14:50:04;98615.13;;;3.65;57.89
63343;BME280;49465;57.664;39.686;2023-01-31T14:52:57;98609.81;;;3.66;58.52
63343;BME280;49465;57.664;39.686;2023-01-31T14:56:02;98613.03;;;3.70;58.49
63343;BME280;49465;57.664;39.686;2023-01-31T14:58:35;98611.53;;;3.53;58.52
63343;BME280;49465;57.664;39.686;2023-01-31T15:01:09;98604.84;;;3.49;58.34
63343;BME280;49465;57.664;39.686;2023-01-31T15:03:56;98616.03;;;3.64;58.48
63343;BME280;49465;57.664;39.686;2023-01-31T15:06:36;98611.72;;;3.35;58.84
63343;BME280;49465;57.664;39.686;2023-01-31T15:11:49;98620.50;;;3.33;58.37
63343;BME280;49465;57.664;39.686;2023-01-31T15:14:29;98620.88;;;3.55;58.02
63343;BME280;49465;57.664;39.686;2023-01-31T15:20:01;98618.06;;;3.59;58.39
63343;BME280;49465;57.664;39.686;2023-01-31T15:22:38;98613.56;;;3.48;58.84
63343;BME280;49465;57.664;39.686;2023-01-31T15:25:22;98616.78;;;3.51;58.80
63343;BME280;49465;57.664;39.686;2023-01-31T15:27:50;98612.19;;;4.11;56.79
63343;BME280;49465;57.664;39.686;2023-01-31T15:30:27;98616.00;;;3.22;58.07
63343;BME280;49465;57.664;39.686;2023-01-31T15:33:30;98619.34;;;3.66;58.23
63343;BME280;49465;57.664;39.686;2023-01-31T15:36:03;98625.88;;;3.30;59.01
63343;BME280;49465;57.664;39.686;2023-01-31T15:38:55;98620.69;;;3.44;58.84
63343;BME280;49465;57.664;39.686;2023-01-31T15:44:17;98630.97;;;3.46;59.03
63343;BME280;49465;57.664;39.686;2023-01-31T15:46:59;98622.38;;;3.45;58.71
63343;BME280;49465;57.664;39.686;2023-01-31T15:49:45;98634.72;;;3.54;58.89
63343;BME280;49465;57.664;39.686;2023-01-31T15:52:40;98636.19;;;3.59;58.66
63343;BME280;49465;57.664;39.686;2023-01-31T15:55:12;98640.75;;;3.41;58.58
63343;BME280;49465;57.664;39.686;2023-01-31T15:57:46;98641.88;;;3.36;58.91
63343;BME280;49465;57.664;39.686;2023-01-31T16:00:30;98653.06;;;3.37;58.74
63343;BME280;49465;57.664;39.686;2023-01-31T16:03:07;98641.97;;;3.49;59.03